Time;durP1;ratioP1;P1;durP2;ratioP2;P2;SDS_P1;SDS_P2;PMS_P1;PMS_P2;Temp;Humidity;BMP_temperature;BMP_pressure;BME280_temperature;BME280_humidity;BME280_pressure;Samples;Min_cycle;Max_cycle;Signal;HPM_P1;HPM_P2
2022/01/15 00:01:27;;;;;;;40.08;8.43;;;7.80;99.90;;;;;;5005429;28;20049;-61
2022/01/15 00:03:52;;;;;;;36.72;8.30;;;7.70;99.90;;;;;;5007359;28;20120;-61
2022/01/15 00:06:18;;;;;;;27.02;7.55;;;7.70;99.90;;;;;;5008231;28;20120;-60
2022/01/15 00:08:43;;;;;;;25.60;7.53;;;7.70;99.90;;;;;;5011969;28;20519;-61
2022/01/15 00:11:09;;;;;;;34.33;7.88;;;7.80;99.90;;;;;;5005608;28;20500;-61
2022/01/15 00:13:35;;;;;;;20.83;7.38;;;7.70;99.90;;;;;;5013451;28;20038;-61
2022/01/15 00:16:13;;;;;;;15.88;6.72;;;7.80;99.90;;;;;;5005902;28;20041;-61
2022/01/15 00:18:42;;;;;;;28.67;7.10;;;7.80;99.90;;;;;;5008484;28;20044;-61
2022/01/15 00:21:09;;;;;;;15.63;5.93;;;7.80;99.90;;;;;;5008895;28;20084;-61
2022/01/15 00:23:35;;;;;;;19.65;5.82;;;7.80;99.90;;;;;;5013550;28;20049;-61
2022/01/15 00:26:01;;;;;;;34.67;6.20;;;7.80;99.90;;;;;;5013509;28;20128;-61
2022/01/15 00:28:26;;;;;;;42.97;7.28;;;7.80;99.90;;;;;;5015373;28;20045;-62
2022/01/15 00:30:52;;;;;;;21.15;6.03;;;7.70;99.90;;;;;;5015531;28;20454;-61
2022/01/15 00:33:17;;;;;;;79.28;7.00;;;7.70;99.90;;;;;;5016630;28;20441;-61
2022/01/15 00:35:43;;;;;;;47.80;5.55;;;7.70;99.90;;;;;;5018480;28;20080;-61
2022/01/15 00:38:09;;;;;;;86.40;6.63;;;7.70;99.90;;;;;;5013148;28;20049;-61
2022/01/15 00:40:34;;;;;;;44.63;6.18;;;7.70;99.90;;;;;;5005355;28;20084;-61
2022/01/15 00:43:00;;;;;;;60.08;6.47;;;7.70;99.90;;;;;;5014567;28;21522;-60
2022/01/15 00:45:31;;;;;;;95.32;6.85;;;7.70;99.90;;;;;;5007944;28;20555;-61
2022/01/15 00:47:57;;;;;;;74.95;6.68;;;7.70;99.90;;;;;;5014540;28;20046;-60
2022/01/15 00:50:22;;;;;;;127.25;8.35;;;7.60;99.90;;;;;;5014605;28;20092;-61
2022/01/15 00:52:48;;;;;;;87.22;6.15;;;7.70;99.90;;;;;;5018453;28;20049;-60
2022/01/15 00:55:15;;;;;;;99.82;6.32;;;7.50;99.90;;;;;;5009315;28;20488;-60
2022/01/15 00:57:41;;;;;;;39.15;4.65;;;7.50;99.90;;;;;;5012081;28;20790;-60
2022/01/15 01:00:10;;;;;;;49.25;4.70;;;7.60;99.90;;;;;;5010282;28;20036;-61
2022/01/15 01:02:36;;;;;;;40.30;4.32;;;7.60;99.90;;;;;;5016402;28;20049;-60
2022/01/15 01:05:02;;;;;;;71.88;5.80;;;7.50;99.90;;;;;;5015930;28;20738;-60
2022/01/15 01:07:27;;;;;;;53.30;5.68;;;7.50;99.90;;;;;;5012768;28;20052;-60
2022/01/15 01:10:04;;;;;;;17.80;4.15;;;7.50;99.90;;;;;;5019263;28;21748;-61
2022/01/15 01:21:01;;;;;;;7.22;3.40;;;7.50;99.90;;;;;;5009288;28;20060;-60
2022/01/15 01:23:26;;;;;;;25.13;4.88;;;7.40;99.90;;;;;;5014862;28;20065;-61
2022/01/15 01:25:57;;;;;;;13.50;3.85;;;7.50;99.90;;;;;;5015762;28;20046;-60
2022/01/15 01:28:30;;;;;;;20.33;4.85;;;7.40;99.90;;;;;;5017276;28;20053;-60
2022/01/15 01:31:02;;;;;;;22.75;5.18;;;7.30;99.90;;;;;;5005652;28;20061;-61
2022/01/15 01:33:34;;;;;;;12.88;4.10;;;7.40;99.90;;;;;;5018582;28;20042;-60
2022/01/15 01:36:20;;;;;;;9.88;3.95;;;7.40;99.90;;;;;;5022758;28;20399;-61
2022/01/15 01:38:55;;;;;;;11.95;4.60;;;7.50;99.90;;;;;;5029316;28;20416;-60
2022/01/15 01:41:23;;;;;;;27.42;5.15;;;7.40;99.90;;;;;;5023000;28;20046;-60
2022/01/15 01:43:55;;;;;;;9.77;3.90;;;7.40;99.90;;;;;;5017888;28;20045;-61
2022/01/15 01:46:39;;;;;;;12.75;4.15;;;7.40;99.90;;;;;;5023076;28;20117;-60
2022/01/15 01:49:10;;;;;;;12.55;4.15;;;7.30;99.90;;;;;;5014900;28;20050;-60
2022/01/15 01:51:39;;;;;;;11.48;4.10;;;7.40;99.90;;;;;;5014588;28;20687;-60
2022/01/15 01:54:09;;;;;;;10.70;4.75;;;7.30;99.90;;;;;;5021734;28;20053;-60
2022/01/15 01:56:36;;;;;;;7.53;3.85;;;7.30;99.90;;;;;;5010863;28;20072;-60
2022/01/15 01:59:03;;;;;;;6.65;3.58;;;7.30;99.90;;;;;;5008306;28;20060;-60
2022/01/15 02:01:29;;;;;;;11.02;4.07;;;7.30;99.90;;;;;;5015956;28;20259;-60
2022/01/15 02:03:54;;;;;;;8.68;3.45;;;7.40;99.90;;;;;;5015695;28;20050;-60
2022/01/15 02:06:20;;;;;;;5.80;4.32;;;7.40;99.90;;;;;;5009355;28;20053;-60
2022/01/15 02:08:48;;;;;;;7.07;3.67;;;7.40;99.90;;;;;;5023322;28;20802;-61
2022/01/15 02:11:14;;;;;;;9.32;3.83;;;7.50;99.90;;;;;;5012817;28;20046;-61
2022/01/15 02:13:42;;;;;;;9.93;3.47;;;7.40;99.90;;;;;;5013784;28;20050;-60
2022/01/15 02:16:09;;;;;;;9.30;3.83;;;7.40;99.90;;;;;;5002695;28;20049;-61
2022/01/15 02:18:35;;;;;;;11.20;4.10;;;7.50;99.90;;;;;;5013531;28;20512;-61
2022/01/15 02:23:43;;;;;;;8.25;3.58;;;7.40;99.90;;;;;;5013747;28;20041;-61
2022/01/15 02:26:11;;;;;;;10.88;3.65;;;7.50;99.90;;;;;;5021910;28;20096;-61
2022/01/15 02:28:42;;;;;;;12.52;4.18;;;7.40;99.90;;;;;;5015945;28;20061;-61
2022/01/15 02:31:16;;;;;;;19.80;4.65;;;7.40;99.90;;;;;;5019367;28;20049;-60
2022/01/15 02:33:44;;;;;;;5.13;3.88;;;7.40;99.90;;;;;;5018274;28;20121;-61
2022/01/15 02:36:13;;;;;;;9.40;3.85;;;7.40;99.90;;;;;;5024415;28;20408;-60
2022/01/15 02:38:40;;;;;;;6.95;4.57;;;7.40;99.90;;;;;;5001023;28;20077;-61
2022/01/15 02:41:06;;;;;;;18.27;4.28;;;7.40;99.90;;;;;;5013863;28;20045;-60
2022/01/15 02:43:33;;;;;;;7.57;4.47;;;7.40;99.90;;;;;;5013962;28;20556;-60
2022/01/15 02:46:19;;;;;;;4.20;3.78;;;7.40;99.90;;;;;;5013367;28;20042;-60
2022/01/15 02:48:47;;;;;;;5.82;3.97;;;7.40;99.90;;;;;;5011078;28;20129;-60
2022/01/15 02:51:13;;;;;;;5.22;3.80;;;7.40;99.90;;;;;;5000107;28;20056;-60
2022/01/15 02:53:38;;;;;;;5.85;4.10;;;7.30;99.90;;;;;;5013122;28;20100;-61
2022/01/15 02:56:04;;;;;;;7.00;4.22;;;7.40;99.90;;;;;;5012133;28;20042;-60
2022/01/15 02:58:30;;;;;;;6.15;4.28;;;7.30;99.90;;;;;;5014379;28;20050;-60
2022/01/15 03:00:55;;;;;;;6.57;4.57;;;7.30;99.90;;;;;;5000424;28;20034;-60
2022/01/15 03:03:21;;;;;;;5.43;4.07;;;7.30;99.90;;;;;;5015704;28;20065;-60
2022/01/15 03:05:47;;;;;;;7.95;3.90;;;7.30;99.90;;;;;;5008317;28;20060;-60
2022/01/15 03:08:13;;;;;;;18.02;4.78;;;7.40;99.90;;;;;;5012819;28;20053;-60
2022/01/15 03:10:39;;;;;;;43.80;5.50;;;7.40;99.90;;;;;;5011239;28;20054;-60
2022/01/15 03:13:11;;;;;;;20.73;4.03;;;7.30;99.90;;;;;;5012006;28;20049;-60
2022/01/15 03:15:37;;;;;;;4.93;3.67;;;7.20;99.90;;;;;;5015669;28;20037;-60
2022/01/15 03:18:03;;;;;;;8.40;3.75;;;7.30;99.90;;;;;;4992505;28;20052;-60
2022/01/15 03:20:29;;;;;;;5.50;3.88;;;7.30;99.90;;;;;;5015146;28;20045;-60
2022/01/15 03:22:54;;;;;;;9.00;4.85;;;7.30;99.90;;;;;;4997274;28;20052;-60
2022/01/15 03:25:21;;;;;;;6.10;4.65;;;7.30;99.90;;;;;;5012300;28;20511;-60
2022/01/15 03:27:46;;;;;;;8.18;4.90;;;7.20;99.90;;;;;;5017255;28;20136;-60
2022/01/15 03:30:13;;;;;;;8.95;5.70;;;7.30;99.90;;;;;;5006542;28;20160;-60
2022/01/15 03:32:42;;;;;;;8.40;5.10;;;7.30;99.90;;;;;;5016300;28;20168;-60
2022/01/15 03:35:12;;;;;;;6.15;4.53;;;7.30;99.90;;;;;;4993406;28;20081;-60
2022/01/15 03:37:38;;;;;;;5.22;3.75;;;7.20;99.90;;;;;;5010967;28;20486;-60
2022/01/15 03:40:06;;;;;;;8.70;4.32;;;7.20;99.90;;;;;;5009754;28;20022;-60
2022/01/15 03:42:32;;;;;;;5.20;3.70;;;7.20;99.90;;;;;;5008158;28;20132;-60
2022/01/15 03:44:57;;;;;;;6.28;4.15;;;7.20;99.90;;;;;;5008068;28;20152;-60
2022/01/15 03:47:23;;;;;;;3.50;3.05;;;7.20;99.90;;;;;;5006156;28;20187;-60
2022/01/15 03:49:48;;;;;;;4.50;3.08;;;7.30;99.90;;;;;;5016287;28;20122;-60
2022/01/15 03:52:14;;;;;;;4.53;3.15;;;7.20;99.90;;;;;;5018563;28;20545;-60
2022/01/15 03:54:39;;;;;;;3.10;2.28;;;7.20;99.90;;;;;;5017664;28;20456;-60
2022/01/15 03:57:05;;;;;;;5.45;3.20;;;7.20;99.90;;;;;;5017341;28;20425;-60
2022/01/15 03:59:32;;;;;;;3.55;2.33;;;7.20;99.90;;;;;;5018528;28;20103;-61
2022/01/15 04:01:57;;;;;;;4.43;2.60;;;7.20;99.90;;;;;;5022836;28;20053;-60
2022/01/15 04:04:23;;;;;;;4.00;2.58;;;7.30;99.90;;;;;;5020170;28;20409;-61
2022/01/15 04:06:49;;;;;;;3.33;2.38;;;7.30;99.90;;;;;;5015235;28;20042;-61
2022/01/15 04:09:15;;;;;;;4.70;2.15;;;7.20;99.90;;;;;;5012193;28;20389;-60
2022/01/15 04:11:40;;;;;;;3.60;1.75;;;7.20;99.90;;;;;;5003572;28;20440;-60
2022/01/15 04:14:07;;;;;;;2.83;1.52;;;7.20;99.90;;;;;;5015242;28;20100;-60
2022/01/15 04:16:35;;;;;;;2.08;1.55;;;7.20;99.90;;;;;;5017822;28;20041;-60
2022/01/15 04:19:02;;;;;;;3.22;1.90;;;7.20;99.90;;;;;;5012842;28;20541;-60
2022/01/15 04:21:27;;;;;;;4.28;2.25;;;7.20;99.90;;;;;;5018172;28;20529;-61
2022/01/15 04:23:53;;;;;;;3.58;2.60;;;7.10;99.90;;;;;;5015783;28;20041;-60
2022/01/15 04:26:24;;;;;;;2.45;1.83;;;7.20;99.90;;;;;;5000500;28;20562;-60
2022/01/15 04:28:50;;;;;;;2.72;1.75;;;7.20;99.90;;;;;;5015025;28;20429;-60
2022/01/15 04:31:17;;;;;;;2.65;1.65;;;7.20;99.90;;;;;;5016494;28;20438;-61
2022/01/15 04:33:43;;;;;;;2.42;1.88;;;7.20;99.90;;;;;;5003452;28;20050;-60
2022/01/15 04:36:09;;;;;;;3.63;2.17;;;7.20;99.90;;;;;;5020615;28;20052;-60
2022/01/15 04:38:38;;;;;;;5.53;3.10;;;7.10;99.90;;;;;;5022205;28;20123;-60
2022/01/15 04:41:04;;;;;;;2.67;2.15;;;7.10;99.90;;;;;;5014896;28;20037;-60
2022/01/15 04:43:30;;;;;;;4.72;2.65;;;7.10;99.90;;;;;;5020284;28;20065;-60
2022/01/15 04:45:56;;;;;;;4.28;3.08;;;7.20;99.90;;;;;;5011102;28;20044;-61
2022/01/15 04:48:22;;;;;;;4.57;3.30;;;7.10;99.90;;;;;;5012760;28;20045;-61
2022/01/15 04:50:48;;;;;;;3.92;2.95;;;7.20;99.90;;;;;;5010339;28;20096;-61
2022/01/15 04:53:13;;;;;;;3.58;2.90;;;7.10;99.90;;;;;;5010325;28;20045;-60
2022/01/15 04:55:39;;;;;;;2.03;1.83;;;7.10;99.90;;;;;;5015293;28;20041;-61
2022/01/15 04:58:06;;;;;;;2.03;1.60;;;7.10;99.90;;;;;;5019870;28;20083;-60
2022/01/15 05:00:34;;;;;;;1.70;1.50;;;7.20;99.90;;;;;;5018582;28;20037;-61
2022/01/15 05:03:00;;;;;;;1.92;1.40;;;7.20;99.90;;;;;;5018726;28;20740;-61
2022/01/15 05:05:27;;;;;;;1.63;1.33;;;7.10;99.90;;;;;;5016653;28;20085;-60
2022/01/15 05:07:54;;;;;;;1.95;1.50;;;7.10;99.90;;;;;;5019536;28;20058;-60
2022/01/15 05:10:24;;;;;;;2.15;1.40;;;7.10;99.90;;;;;;5014534;28;20413;-60
2022/01/15 05:12:51;;;;;;;1.85;1.33;;;7.10;99.90;;;;;;5017595;28;20042;-60
2022/01/15 05:15:18;;;;;;;2.30;1.30;;;7.00;99.90;;;;;;5020113;28;20046;-60
2022/01/15 05:17:44;;;;;;;1.48;1.13;;;7.00;99.90;;;;;;5021708;28;20045;-60
2022/01/15 05:20:12;;;;;;;1.85;1.45;;;7.10;99.90;;;;;;5020685;28;20049;-60
2022/01/15 05:22:37;;;;;;;2.70;0.93;;;7.00;99.90;;;;;;5019238;28;20093;-60
2022/01/15 05:25:07;;;;;;;1.48;0.95;;;7.00;99.90;;;;;;5016957;28;20046;-60
2022/01/15 05:27:34;;;;;;;1.35;0.98;;;7.10;99.90;;;;;;5015702;28;20050;-60
2022/01/15 05:30:00;;;;;;;0.90;0.80;;;7.00;99.90;;;;;;5012259;28;20062;-60
2022/01/15 05:32:26;;;;;;;1.05;0.70;;;7.00;99.90;;;;;;5020965;28;20057;-60
2022/01/15 05:34:51;;;;;;;1.20;0.80;;;7.00;99.90;;;;;;5014967;28;20049;-60
2022/01/15 05:37:18;;;;;;;1.08;0.77;;;7.00;99.90;;;;;;5021003;28;20045;-60
2022/01/15 05:39:43;;;;;;;2.45;0.68;;;7.00;99.90;;;;;;5017631;28;20052;-60
2022/01/15 05:42:09;;;;;;;0.70;0.60;;;6.90;99.90;;;;;;5016222;28;20115;-60
2022/01/15 05:44:35;;;;;;;0.60;0.60;;;6.90;99.90;;;;;;5016117;28;20453;-60
2022/01/15 05:47:00;;;;;;;1.02;0.85;;;6.90;99.90;;;;;;5024354;28;20038;-60
2022/01/15 05:49:26;;;;;;;1.00;0.70;;;6.90;99.90;;;;;;5021329;28;20128;-60
2022/01/15 05:51:52;;;;;;;1.65;1.25;;;6.80;99.90;;;;;;5015299;28;20050;-60
2022/01/15 05:54:18;;;;;;;1.27;1.17;;;6.90;99.90;;;;;;5017864;28;20040;-60
2022/01/15 05:56:43;;;;;;;2.47;1.27;;;6.80;99.90;;;;;;5015496;28;20421;-60
2022/01/15 05:59:09;;;;;;;1.65;1.30;;;6.90;99.90;;;;;;5013252;28;20053;-60
2022/01/15 06:01:36;;;;;;;3.70;2.58;;;6.90;99.90;;;;;;5016017;28;20038;-60
2022/01/15 06:04:02;;;;;;;3.15;2.70;;;6.80;99.90;;;;;;5012246;28;20056;-60
2022/01/15 06:06:28;;;;;;;2.47;2.13;;;6.90;99.90;;;;;;5019804;28;20045;-60
2022/01/15 06:08:53;;;;;;;3.55;2.70;;;6.90;99.90;;;;;;5012960;28;20069;-61
2022/01/15 06:11:19;;;;;;;2.80;2.13;;;6.90;99.90;;;;;;5014337;28;20052;-60
2022/01/15 06:13:46;;;;;;;2.35;2.05;;;6.90;99.90;;;;;;5005271;28;20065;-60
2022/01/15 06:16:11;;;;;;;3.30;2.50;;;6.80;99.90;;;;;;5019889;28;20045;-60
2022/01/15 06:18:37;;;;;;;2.65;2.05;;;6.80;99.90;;;;;;5000663;28;20057;-60
2022/01/15 06:21:03;;;;;;;5.40;2.22;;;6.80;99.90;;;;;;5017179;28;20045;-61
2022/01/15 06:23:28;;;;;;;2.67;1.92;;;6.80;99.90;;;;;;5011359;28;20049;-60
2022/01/15 06:25:54;;;;;;;2.35;1.98;;;6.80;99.90;;;;;;5012182;28;20041;-60
2022/01/15 06:28:20;;;;;;;2.53;1.58;;;6.70;99.90;;;;;;4998120;28;20053;-60
2022/01/15 06:30:46;;;;;;;1.98;1.30;;;6.70;99.90;;;;;;4996843;28;20488;-60
2022/01/15 06:33:12;;;;;;;2.95;1.90;;;6.70;99.90;;;;;;4998927;28;20050;-60
2022/01/15 06:35:37;;;;;;;2.03;1.23;;;6.70;99.90;;;;;;5019329;28;20099;-60
2022/01/15 06:38:03;;;;;;;1.63;0.90;;;6.60;99.90;;;;;;5000427;28;20053;-60
2022/01/15 06:40:29;;;;;;;3.28;1.27;;;6.60;99.90;;;;;;5014359;28;20041;-60
2022/01/15 06:42:54;;;;;;;1.63;1.10;;;6.60;99.90;;;;;;5016686;28;20879;-60
2022/01/15 06:45:20;;;;;;;3.05;0.93;;;6.60;99.90;;;;;;5013044;28;20046;-60
2022/01/15 06:47:45;;;;;;;2.08;1.38;;;6.60;99.90;;;;;;5014612;28;20123;-60
2022/01/15 06:50:11;;;;;;;2.38;1.58;;;6.60;99.90;;;;;;5018478;28;20053;-60
2022/01/15 06:52:38;;;;;;;8.50;1.40;;;6.60;99.90;;;;;;5020025;28;20053;-60
2022/01/15 06:55:08;;;;;;;1.67;1.40;;;6.60;99.90;;;;;;5019462;28;20109;-60
2022/01/15 06:57:33;;;;;;;1.42;1.33;;;6.60;99.90;;;;;;5024279;28;20045;-60
2022/01/15 07:00:01;;;;;;;3.03;1.20;;;6.60;99.90;;;;;;5010134;28;20048;-60
2022/01/15 07:02:26;;;;;;;1.10;1.00;;;6.50;99.90;;;;;;5017001;28;20033;-60
2022/01/15 07:04:52;;;;;;;1.08;0.88;;;6.50;99.90;;;;;;5021467;28;20394;-60
2022/01/15 07:07:17;;;;;;;2.55;1.50;;;6.50;99.90;;;;;;5014836;28;20042;-61
2022/01/15 07:09:43;;;;;;;2.13;1.27;;;6.50;99.90;;;;;;5006201;28;20046;-60
2022/01/15 07:12:09;;;;;;;1.40;1.10;;;6.40;99.90;;;;;;5013612;28;20700;-60
2022/01/15 07:14:35;;;;;;;3.38;1.40;;;6.40;99.90;;;;;;5018297;28;20057;-60
2022/01/15 07:17:01;;;;;;;2.15;1.63;;;6.50;99.90;;;;;;5020119;28;20042;-60
2022/01/15 07:19:26;;;;;;;1.48;1.08;;;6.50;99.90;;;;;;5009862;28;20521;-60
2022/01/15 07:21:52;;;;;;;1.92;1.27;;;6.40;99.90;;;;;;4999469;28;20050;-60
2022/01/15 07:24:17;;;;;;;1.90;1.58;;;6.40;99.90;;;;;;5015509;28;20107;-60
2022/01/15 07:26:43;;;;;;;1.75;1.30;;;6.50;99.90;;;;;;5010692;28;20050;-60
2022/01/15 07:29:16;;;;;;;1.77;1.42;;;6.40;99.90;;;;;;5012461;28;20156;-60
2022/01/15 07:31:45;;;;;;;2.05;1.45;;;6.50;99.90;;;;;;5022645;28;20045;-60
2022/01/15 07:34:11;;;;;;;2.03;1.60;;;6.40;99.90;;;;;;5016100;28;20060;-60
2022/01/15 07:36:37;;;;;;;3.92;1.67;;;6.50;99.90;;;;;;5016827;28;20042;-60
2022/01/15 07:39:05;;;;;;;3.28;2.20;;;6.40;99.90;;;;;;5013194;28;20175;-61
2022/01/15 07:41:31;;;;;;;3.40;1.92;;;6.40;99.90;;;;;;5011581;28;20094;-60
2022/01/15 07:43:56;;;;;;;6.95;2.35;;;6.50;99.90;;;;;;5002835;28;20405;-61
2022/01/15 07:46:22;;;;;;;5.35;2.22;;;6.50;99.90;;;;;;5012256;28;20054;-60
2022/01/15 07:48:47;;;;;;;2.70;2.28;;;6.60;99.90;;;;;;5024266;28;20049;-60
2022/01/15 07:51:13;;;;;;;3.40;1.95;;;6.60;99.90;;;;;;5010802;28;20462;-61
2022/01/15 07:53:38;;;;;;;3.40;2.33;;;6.60;99.90;;;;;;5014455;28;20057;-60
2022/01/15 07:56:04;;;;;;;3.80;2.95;;;6.60;99.90;;;;;;5018146;28;20053;-60
2022/01/15 07:58:30;;;;;;;5.60;2.67;;;6.50;99.90;;;;;;5021800;28;20041;-60
2022/01/15 08:00:55;;;;;;;5.43;2.40;;;6.50;99.90;;;;;;5018963;28;20393;-60
2022/01/15 08:03:21;;;;;;;2.67;1.98;;;6.50;99.90;;;;;;4996092;28;20086;-60
2022/01/15 08:05:47;;;;;;;2.40;1.80;;;6.50;99.90;;;;;;5021265;28;20042;-60
2022/01/15 08:08:12;;;;;;;3.55;1.90;;;6.50;99.90;;;;;;5014039;28;20129;-60
2022/01/15 08:10:38;;;;;;;2.92;2.17;;;6.40;99.90;;;;;;5025986;28;20037;-60
2022/01/15 08:13:03;;;;;;;3.05;2.15;;;6.40;99.90;;;;;;5011907;28;20041;-60
2022/01/15 08:15:31;;;;;;;2.50;1.83;;;6.40;99.90;;;;;;5016266;28;20045;-60
2022/01/15 08:17:57;;;;;;;3.13;2.42;;;6.40;99.90;;;;;;5014818;28;20037;-60
2022/01/15 08:20:23;;;;;;;3.03;1.85;;;6.40;99.90;;;;;;5015031;28;20053;-61
2022/01/15 08:22:51;;;;;;;3.08;1.92;;;6.40;99.90;;;;;;5021582;28;20545;-60
2022/01/15 08:25:17;;;;;;;3.38;2.08;;;6.40;99.90;;;;;;5007320;28;20047;-60
2022/01/15 08:27:43;;;;;;;2.70;1.70;;;6.40;99.90;;;;;;5019054;28;20103;-60
2022/01/15 08:30:09;;;;;;;4.03;2.25;;;6.40;99.90;;;;;;5018329;28;20049;-60
2022/01/15 08:32:35;;;;;;;2.78;2.42;;;6.40;99.90;;;;;;5013798;28;20038;-60
2022/01/15 08:35:01;;;;;;;3.35;1.98;;;6.40;99.90;;;;;;5013238;28;20665;-60
2022/01/15 08:37:26;;;;;;;3.00;2.33;;;6.40;99.90;;;;;;5016449;28;20085;-60
2022/01/15 08:39:52;;;;;;;3.90;2.95;;;6.40;99.90;;;;;;5017741;28;20034;-60
2022/01/15 08:42:18;;;;;;;2.25;2.05;;;6.40;99.90;;;;;;5002132;28;20059;-60
2022/01/15 08:44:45;;;;;;;5.45;2.90;;;6.50;99.90;;;;;;5014722;28;20050;-60
2022/01/15 08:47:10;;;;;;;5.30;2.75;;;6.40;99.90;;;;;;5015890;28;20080;-60
2022/01/15 08:49:36;;;;;;;3.33;2.40;;;6.40;99.90;;;;;;5018993;28;20065;-60
2022/01/15 08:52:03;;;;;;;3.60;2.65;;;6.40;99.90;;;;;;5025134;28;20100;-60
2022/01/15 08:54:28;;;;;;;4.97;2.72;;;6.30;99.90;;;;;;5022951;28;20060;-60
2022/01/15 08:56:55;;;;;;;3.15;2.83;;;6.30;99.90;;;;;;5019416;28;20730;-60
2022/01/15 08:59:21;;;;;;;3.50;2.85;;;6.40;99.90;;;;;;5019075;28;20064;-60
2022/01/15 09:01:48;;;;;;;4.47;2.83;;;6.40;99.90;;;;;;5018287;28;20041;-60
2022/01/15 09:04:14;;;;;;;4.22;2.75;;;6.40;99.90;;;;;;5005261;28;20045;-60
2022/01/15 09:06:40;;;;;;;5.82;2.97;;;6.30;99.90;;;;;;5022235;28;20409;-60
2022/01/15 09:09:06;;;;;;;6.93;3.13;;;6.30;99.90;;;;;;5014770;28;20084;-60
2022/01/15 09:11:31;;;;;;;4.32;2.85;;;6.30;99.90;;;;;;5013438;28;20060;-60
2022/01/15 09:13:57;;;;;;;4.65;2.85;;;6.40;99.90;;;;;;5015952;28;20042;-61
2022/01/15 09:16:23;;;;;;;4.60;3.28;;;6.30;99.90;;;;;;5024517;28;20049;-60
2022/01/15 09:18:50;;;;;;;4.00;2.95;;;6.40;99.90;;;;;;5011079;28;20048;-60
2022/01/15 09:21:16;;;;;;;4.38;2.95;;;6.40;99.90;;;;;;5019752;28;20107;-60
2022/01/15 09:23:42;;;;;;;4.70;2.95;;;6.40;99.90;;;;;;5015923;28;20050;-60
2022/01/15 09:26:19;;;;;;;3.67;2.65;;;6.40;99.90;;;;;;5015893;28;20125;-60
2022/01/15 09:31:30;;;;;;;4.10;2.97;;;6.40;99.90;;;;;;5014025;28;20107;-60
2022/01/15 09:33:55;;;;;;;2.38;2.08;;;6.40;99.90;;;;;;5012304;28;20042;-60
2022/01/15 09:36:21;;;;;;;4.50;3.00;;;6.40;99.90;;;;;;5013503;28;20041;-60
2022/01/15 09:38:47;;;;;;;4.57;3.35;;;6.40;99.90;;;;;;5004911;28;20054;-60
2022/01/15 09:41:15;;;;;;;4.93;3.15;;;6.40;99.90;;;;;;4993711;28;20053;-60
2022/01/15 09:43:40;;;;;;;5.05;3.03;;;6.30;99.90;;;;;;5011528;28;20111;-60
2022/01/15 09:46:08;;;;;;;5.47;3.08;;;6.40;99.90;;;;;;5019519;28;20387;-60
2022/01/15 09:48:38;;;;;;;4.55;3.33;;;6.40;99.90;;;;;;4993716;28;20464;-60
2022/01/15 09:51:04;;;;;;;3.20;2.50;;;6.50;99.90;;;;;;5025995;28;20046;-60
2022/01/15 09:53:32;;;;;;;6.50;3.05;;;6.40;99.90;;;;;;5014192;28;20042;-60
2022/01/15 09:55:57;;;;;;;4.15;3.25;;;6.40;99.90;;;;;;5021301;28;20050;-60
2022/01/15 09:58:23;;;;;;;4.30;3.05;;;6.40;99.90;;;;;;5003037;28;20087;-60
2022/01/15 10:00:48;;;;;;;3.15;2.47;;;6.30;99.90;;;;;;5000879;28;20038;-60
2022/01/15 10:03:14;;;;;;;3.75;2.53;;;6.30;99.90;;;;;;5016280;28;20063;-60
2022/01/15 10:05:40;;;;;;;3.30;2.80;;;6.40;99.90;;;;;;5014768;28;20045;-59
2022/01/15 10:08:12;;;;;;;4.00;2.78;;;6.30;99.90;;;;;;5012219;28;20042;-60
2022/01/15 10:10:45;;;;;;;5.97;3.50;;;6.30;99.90;;;;;;5023205;28;20068;-60
2022/01/15 10:13:23;;;;;;;4.90;3.00;;;6.40;99.90;;;;;;5013795;28;20422;-60
2022/01/15 10:16:10;;;;;;;4.25;3.05;;;6.40;99.90;;;;;;5017045;28;20037;-60
2022/01/15 10:18:44;;;;;;;8.00;4.10;;;6.50;99.90;;;;;;5026432;28;20045;-60
2022/01/15 10:21:23;;;;;;;4.28;3.15;;;6.50;99.90;;;;;;5014570;28;20403;-60
2022/01/15 10:23:51;;;;;;;5.20;2.75;;;6.50;99.90;;;;;;5017839;28;20481;-59
2022/01/15 10:26:28;;;;;;;6.97;3.25;;;6.50;99.90;;;;;;5016415;28;20061;-60
2022/01/15 10:29:07;;;;;;;7.45;3.75;;;6.40;99.90;;;;;;5018476;28;20057;-60
2022/01/15 10:31:46;;;;;;;4.30;3.60;;;6.40;99.90;;;;;;5019419;28;20054;-61
2022/01/15 10:34:37;;;;;;;4.75;3.53;;;6.50;99.90;;;;;;5011500;28;20042;-61
2022/01/15 10:37:12;;;;;;;8.88;3.65;;;6.40;99.90;;;;;;5010434;28;20168;-61
2022/01/15 10:39:39;;;;;;;7.60;3.92;;;6.40;99.90;;;;;;5014210;28;20117;-61
2022/01/15 10:42:16;;;;;;;8.55;3.80;;;6.40;99.90;;;;;;5006783;28;20064;-61
2022/01/15 10:44:42;;;;;;;5.75;4.03;;;6.40;99.90;;;;;;5011024;28;20057;-61
2022/01/15 10:47:13;;;;;;;5.65;3.60;;;6.40;99.90;;;;;;5017831;28;20029;-61
2022/01/15 10:49:40;;;;;;;9.90;4.53;;;6.50;99.90;;;;;;5015857;28;20085;-61
2022/01/15 10:52:09;;;;;;;4.80;3.55;;;6.50;99.90;;;;;;5003863;28;20072;-61
2022/01/15 10:54:48;;;;;;;8.30;4.10;;;6.50;99.90;;;;;;5010586;28;20682;-61
2022/01/15 10:57:14;;;;;;;6.07;4.28;;;6.40;99.90;;;;;;5018575;28;20059;-61
2022/01/15 10:59:39;;;;;;;12.60;4.47;;;6.50;99.90;;;;;;5021619;28;20133;-61
2022/01/15 11:02:18;;;;;;;8.07;3.38;;;6.40;99.90;;;;;;5012808;28;20073;-61
2022/01/15 11:04:45;;;;;;;6.38;4.22;;;6.30;99.90;;;;;;5021091;28;20041;-61
2022/01/15 11:07:16;;;;;;;8.85;4.43;;;6.40;99.90;;;;;;4995034;28;20458;-61
2022/01/15 11:09:47;;;;;;;7.35;4.22;;;6.30;99.90;;;;;;5022149;28;20038;-61
2022/01/15 11:12:14;;;;;;;16.65;5.00;;;6.30;99.90;;;;;;5019350;28;20065;-61
2022/01/15 11:14:40;;;;;;;6.03;4.20;;;6.20;99.90;;;;;;5013749;28;20049;-61
2022/01/15 11:17:07;;;;;;;9.15;4.93;;;6.20;99.90;;;;;;5014830;28;20057;-61
2022/01/15 11:19:34;;;;;;;12.65;5.43;;;6.20;99.90;;;;;;5015561;28;20033;-61
2022/01/15 11:22:02;;;;;;;22.30;7.47;;;6.30;99.90;;;;;;5013451;28;20053;-61
2022/01/15 11:24:27;;;;;;;18.42;8.40;;;6.30;99.90;;;;;;5015378;28;20498;-61
2022/01/15 11:26:55;;;;;;;18.55;7.45;;;6.30;99.90;;;;;;5018845;28;20075;-61
2022/01/15 11:29:21;;;;;;;22.73;8.88;;;6.30;99.90;;;;;;4993820;28;20057;-62
2022/01/15 11:31:56;;;;;;;13.90;8.98;;;6.30;99.90;;;;;;5011217;28;20568;-62
2022/01/15 11:34:23;;;;;;;59.08;11.18;;;6.30;99.90;;;;;;5017654;28;20553;-62
2022/01/15 11:36:50;;;;;;;16.77;10.63;;;6.30;99.90;;;;;;5011716;28;20053;-62
2022/01/15 11:39:21;;;;;;;16.80;9.90;;;6.30;99.90;;;;;;5015828;28;20058;-62
2022/01/15 11:41:55;;;;;;;17.48;10.07;;;6.30;99.90;;;;;;5001107;28;20049;-62
2022/01/15 11:44:31;;;;;;;19.55;11.13;;;6.40;99.90;;;;;;5021984;28;20493;-62
2022/01/15 11:47:21;;;;;;;19.00;11.68;;;6.30;99.90;;;;;;5010016;28;20060;-62
2022/01/15 11:49:49;;;;;;;23.38;12.32;;;6.20;99.90;;;;;;5021270;28;20073;-63
2022/01/15 11:52:14;;;;;;;22.77;13.60;;;6.40;99.90;;;;;;4993629;28;20507;-62
2022/01/15 11:54:49;;;;;;;21.38;13.18;;;6.30;99.90;;;;;;5009389;28;20045;-63
2022/01/15 11:57:28;;;;;;;31.10;13.73;;;6.30;99.90;;;;;;5001711;28;20050;-62
2022/01/15 11:59:58;;;;;;;23.52;13.85;;;6.20;99.90;;;;;;5002962;28;20041;-62
2022/01/15 12:02:33;;;;;;;31.85;13.60;;;6.20;99.90;;;;;;5017171;28;20140;-62
2022/01/15 12:05:17;;;;;;;18.30;11.00;;;6.20;99.90;;;;;;5016884;28;20453;-62
2022/01/15 12:08:00;;;;;;;29.23;13.70;;;6.30;99.90;;;;;;5015588;28;20100;-62
2022/01/15 12:10:41;;;;;;;25.70;14.88;;;6.20;99.90;;;;;;5002709;28;20142;-62
2022/01/15 12:13:18;;;;;;;27.55;14.55;;;6.10;99.90;;;;;;5008431;28;20065;-63
2022/01/15 12:15:43;;;;;;;21.75;13.57;;;6.10;99.90;;;;;;5009104;28;20363;-62
2022/01/15 12:18:18;;;;;;;40.15;13.15;;;6.10;99.90;;;;;;4990875;28;20065;-62
2022/01/15 12:20:44;;;;;;;23.23;15.05;;;6.10;99.90;;;;;;5011243;28;20500;-62
2022/01/15 12:23:19;;;;;;;25.05;15.57;;;6.20;99.90;;;;;;5009076;28;20505;-63
2022/01/15 12:25:45;;;;;;;35.15;16.10;;;6.20;99.90;;;;;;4998404;28;20478;-62
2022/01/15 12:28:15;;;;;;;32.25;15.85;;;6.30;99.90;;;;;;5007770;28;20096;-63
2022/01/15 12:30:46;;;;;;;26.52;14.10;;;6.30;99.90;;;;;;5018903;28;20037;-62
2022/01/15 12:33:13;;;;;;;71.10;16.48;;;6.30;99.90;;;;;;5010145;28;20096;-62
2022/01/15 12:35:41;;;;;;;32.88;16.50;;;6.30;99.90;;;;;;5026471;28;20051;-63
2022/01/15 12:38:16;;;;;;;35.67;17.30;;;6.30;99.90;;;;;;5008232;28;20042;-63
2022/01/15 12:40:48;;;;;;;32.20;16.17;;;6.30;99.90;;;;;;5017931;28;20057;-63
2022/01/15 12:43:24;;;;;;;22.27;14.82;;;6.20;99.90;;;;;;5027080;28;20168;-63
2022/01/15 12:45:56;;;;;;;19.83;13.00;;;6.20;99.90;;;;;;5013908;28;20050;-62
2022/01/15 12:48:25;;;;;;;24.77;14.50;;;6.20;99.90;;;;;;5008066;28;20095;-63
2022/01/15 12:51:11;;;;;;;30.35;14.10;;;6.20;99.90;;;;;;5026072;28;20037;-62
2022/01/15 12:53:42;;;;;;;16.65;12.52;;;6.20;99.90;;;;;;5017576;28;20046;-62
2022/01/15 12:56:14;;;;;;;18.85;11.70;;;6.20;99.90;;;;;;5009729;28;20041;-63
2022/01/15 12:58:40;;;;;;;20.67;10.93;;;6.20;99.90;;;;;;5028691;28;20453;-63
2022/01/15 13:01:10;;;;;;;19.50;10.85;;;6.10;99.90;;;;;;5019998;28;20049;-62
2022/01/15 13:03:39;;;;;;;16.98;11.57;;;6.00;99.90;;;;;;5000960;28;20085;-62
2022/01/15 13:06:06;;;;;;;16.38;11.93;;;6.00;99.90;;;;;;5008281;28;20053;-63
2022/01/15 13:08:36;;;;;;;17.27;11.43;;;6.00;99.90;;;;;;5012408;28;20045;-62
2022/01/15 13:11:07;;;;;;;18.80;12.02;;;6.00;99.90;;;;;;5026178;28;20069;-62